United Tenorio — A8UB9 — position and weather

sailwx.info

Track history (hours):
 
Tides and Currents Weather Stations Pressure Air Temp Water Temp Dewpoint Dewpoint Depression Visibility Wind Speed Wind Dir Waves Ship Positions

United Tenorio

Last reported at 2015-Mar-05 09:33 UTC. Time now 2015-Mar-31 00:22 UTC.
Position N 36°01' W 005°16'.
Warning: this ship's position is 25 days out of date.

Length 174 m; draft 10.8 m.

Type: Cargo ship. MMSI: 636091880.

Date/timePositionNaut miles runAvg speedWind from/ knotsBaromVisibWave heightAir tempDewpointWater temp
2015-Mar-05 09:33N 36°01' W 005°16'8 8.3
2015-Mar-05 08:33N 36°07' W 005°22'0 0.1
2015-Mar-05 07:32N 36°07' W 005°22'0 0.0
2015-Mar-05 06:32N 36°07' W 005°22'0 0.1
2015-Mar-05 05:32N 36°08' W 005°22'0 0.0
2015-Mar-05 04:32N 36°08' W 005°22'0 0.0
2015-Mar-05 03:32N 36°08' W 005°22'0 0.1
2015-Mar-05 02:32N 36°08' W 005°22'0 0.1
2015-Mar-05 01:32N 36°08' W 005°22'0 0.1
2015-Mar-05 00:32N 36°07' W 005°22'0 0.0
2015-Mar-04 23:32N 36°07' W 005°22'1 0.7
2015-Mar-04 22:32N 36°07' W 005°22'2 2.1
2015-Mar-04 21:34N 36°05' W 005°22'2 2.2
2015-Mar-04 20:34N 36°03' W 005°22'20511.8
2015-Mar-04 03:09N 36°11' W 009°35'711.6
2015-Mar-04 02:33N 36°12' W 009°44'  
2015-Mar-01 18:33N 37°23' W 023°34'1211.6
2015-Mar-01 17:33N 37°24' W 023°49'1211.9
2015-Mar-01 16:34N 37°25' W 024°04'1211.9
2015-Mar-01 15:33N 37°26' W 024°19'1212.0
2015-Mar-01 14:33N 37°28' W 024°33'1212.2
2015-Mar-01 13:33N 37°29' W 024°49'1212.1
2015-Mar-01 12:34N 37°30' W 025°04'1212.1
2015-Mar-01 11:34N 37°30' W 025°19'1212.3
2015-Mar-01 10:34N 37°30' W 025°35'1212.1
2015-Mar-01 09:34N 37°30' W 025°50'1212.1
2015-Mar-01 08:34N 37°31' W 026°05'1211.9
2015-Mar-01 07:34N 37°31' W 026°20'1212.0
2015-Mar-01 06:34N 37°31' W 026°35'1211.8
2015-Mar-01 05:34N 37°31' W 026°50'1212.0
2015-Mar-01 04:34N 37°31' W 027°05'1211.9
2015-Mar-01 03:33N 37°30' W 027°21'1212.0
2015-Mar-01 02:33N 37°30' W 027°36'1211.9
2015-Mar-01 01:33N 37°30' W 027°51'1212.2
2015-Mar-01 00:33N 37°30' W 028°06'1212.2
2015-Feb-28 23:33N 37°30' W 028°22'1212.1
2015-Feb-28 22:33N 37°30' W 028°37'1211.8
2015-Feb-28 21:33N 37°29' W 028°52'1211.9
2015-Feb-28 20:33N 37°29' W 029°07'1211.9
2015-Feb-28 19:34N 37°29' W 029°22'1212.0
2015-Feb-28 18:34N 37°28' W 029°37'1312.6
2015-Feb-28 17:33N 37°28' W 029°53'2612.9
2015-Feb-28 15:33N 37°27' W 030°25'1312.3
2015-Feb-28 14:30N 37°26' W 030°41'1111.8
2015-Feb-28 13:33N 37°26' W 030°55'  
Track history (hours):
 
Tides and Currents Weather Stations Pressure Air Temp Water Temp Dewpoint Dewpoint Depression Visibility Wind Speed Wind Dir Waves Ship Positions

United Tenorio

Last reported at 2015-Mar-05 09:33 UTC. Time now 2015-Mar-31 00:22 UTC.
Position N 36°01' W 005°16'.
Warning: this ship's position is 25 days out of date.

Length 174 m; draft 10.8 m.

Type: Cargo ship. MMSI: 636091880.

Date/timePositionNaut miles runAvg speedWind from/ knotsBaromVisibWave heightAir tempDewpointWater temp
2015-Mar-05 09:33N 36°01' W 005°16'8 8.3
2015-Mar-05 08:33N 36°07' W 005°22'0 0.1
2015-Mar-05 07:32N 36°07' W 005°22'0 0.0
2015-Mar-05 06:32N 36°07' W 005°22'0 0.1
2015-Mar-05 05:32N 36°08' W 005°22'0 0.0
2015-Mar-05 04:32N 36°08' W 005°22'0 0.0
2015-Mar-05 03:32N 36°08' W 005°22'0 0.1
2015-Mar-05 02:32N 36°08' W 005°22'0 0.1
2015-Mar-05 01:32N 36°08' W 005°22'0 0.1
2015-Mar-05 00:32N 36°07' W 005°22'0 0.0
2015-Mar-04 23:32N 36°07' W 005°22'1 0.7
2015-Mar-04 22:32N 36°07' W 005°22'2 2.1
2015-Mar-04 21:34N 36°05' W 005°22'2 2.2
2015-Mar-04 20:34N 36°03' W 005°22'20511.8
2015-Mar-04 03:09N 36°11' W 009°35'711.6
2015-Mar-04 02:33N 36°12' W 009°44'  
2015-Mar-01 18:33N 37°23' W 023°34'1211.6
2015-Mar-01 17:33N 37°24' W 023°49'1211.9
2015-Mar-01 16:34N 37°25' W 024°04'1211.9
2015-Mar-01 15:33N 37°26' W 024°19'1212.0
2015-Mar-01 14:33N 37°28' W 024°33'1212.2
2015-Mar-01 13:33N 37°29' W 024°49'1212.1
2015-Mar-01 12:34N 37°30' W 025°04'1212.1
2015-Mar-01 11:34N 37°30' W 025°19'1212.3
2015-Mar-01 10:34N 37°30' W 025°35'1212.1
2015-Mar-01 09:34N 37°30' W 025°50'1212.1
2015-Mar-01 08:34N 37°31' W 026°05'1211.9
2015-Mar-01 07:34N 37°31' W 026°20'1212.0
2015-Mar-01 06:34N 37°31' W 026°35'1211.8
2015-Mar-01 05:34N 37°31' W 026°50'1212.0
2015-Mar-01 04:34N 37°31' W 027°05'1211.9
2015-Mar-01 03:33N 37°30' W 027°21'1212.0
2015-Mar-01 02:33N 37°30' W 027°36'1211.9
2015-Mar-01 01:33N 37°30' W 027°51'1212.2
2015-Mar-01 00:33N 37°30' W 028°06'1212.2
2015-Feb-28 23:33N 37°30' W 028°22'1212.1
2015-Feb-28 22:33N 37°30' W 028°37'1211.8
2015-Feb-28 21:33N 37°29' W 028°52'1211.9
2015-Feb-28 20:33N 37°29' W 029°07'1211.9
2015-Feb-28 19:34N 37°29' W 029°22'1212.0
2015-Feb-28 18:34N 37°28' W 029°37'1312.6
2015-Feb-28 17:33N 37°28' W 029°53'2612.9
2015-Feb-28 15:33N 37°27' W 030°25'1312.3
2015-Feb-28 14:30N 37°26' W 030°41'1111.8
2015-Feb-28 13:33N 37°26' W 030°55'  

Dump ship's entire track history